createdAt,value
2024-01-30T00:02:27.965Z,66.85
2024-01-30T00:05:30.169Z,66.57
2024-01-30T00:08:32.457Z,66.72
2024-01-30T00:11:34.751Z,66.72
2024-01-30T00:14:37.020Z,66.51
2024-01-30T00:17:39.322Z,66.03
2024-01-30T00:20:42.111Z,66.34
2024-01-30T00:23:44.419Z,66.52
2024-01-30T00:26:46.593Z,66.64
2024-01-30T00:29:49.064Z,66.37
2024-01-30T00:32:51.333Z,66.27
2024-01-30T00:35:53.596Z,65.77
2024-01-30T00:38:55.742Z,65.79
2024-01-30T00:41:58.012Z,65.88
2024-01-30T00:45:00.267Z,66.01
2024-01-30T00:48:02.566Z,66.33
2024-01-30T00:51:04.898Z,66.35
2024-01-30T00:54:07.680Z,67.73
2024-01-30T00:57:10.302Z,68.10
2024-01-30T01:00:13.727Z,68.01
2024-01-30T01:03:16.105Z,67.20
2024-01-30T01:06:18.486Z,67.37
2024-01-30T01:09:20.761Z,67.54
2024-01-30T01:12:22.949Z,68.08
2024-01-30T01:15:27.083Z,68.88
2024-01-30T01:18:30.035Z,68.53
2024-01-30T01:21:32.238Z,67.96
2024-01-30T01:24:35.232Z,67.57
2024-01-30T01:27:41.914Z,66.78
2024-01-30T01:30:44.488Z,66.51
2024-01-30T01:33:46.931Z,66.75
2024-01-30T01:36:49.367Z,66.88
2024-01-30T01:39:51.624Z,66.83
2024-01-30T01:42:55.022Z,66.69
2024-01-30T01:45:57.465Z,67.21
2024-01-30T01:48:59.863Z,66.53
2024-01-30T01:52:02.222Z,66.50
2024-01-30T01:55:04.730Z,66.41
2024-01-30T01:58:07.097Z,66.80
2024-01-30T02:01:09.452Z,66.72
2024-01-30T02:04:11.744Z,66.87
2024-01-30T02:07:14.380Z,67.70
2024-01-30T02:10:16.912Z,67.39
2024-01-30T02:13:19.365Z,67.84
2024-01-30T02:16:21.884Z,69.02
2024-01-30T02:19:24.123Z,69.03
2024-01-30T02:22:26.562Z,69.25
2024-01-30T02:25:36.905Z,68.96
2024-01-30T02:28:39.561Z,68.45
2024-01-30T02:31:42.301Z,67.89
2024-01-30T02:34:44.574Z,67.63
2024-01-30T02:37:46.868Z,68.14
2024-01-30T02:40:48.993Z,67.66
2024-01-30T02:43:51.240Z,67.90
2024-01-30T02:46:55.379Z,68.25
2024-01-30T02:49:57.803Z,67.43
2024-01-30T02:53:00.100Z,67.74
2024-01-30T02:56:03.771Z,67.48
2024-01-30T02:59:05.986Z,68.28
2024-01-30T03:02:08.235Z,68.70
2024-01-30T03:05:10.386Z,68.25
2024-01-30T03:08:12.630Z,68.26
2024-01-30T03:11:14.924Z,67.76
2024-01-30T03:14:17.575Z,67.03
2024-01-30T03:17:19.963Z,66.97
2024-01-30T03:20:22.216Z,67.15
2024-01-30T03:23:24.406Z,67.07
2024-01-30T03:26:26.574Z,67.54
2024-01-30T03:29:28.783Z,67.71
2024-01-30T03:32:30.973Z,67.30
2024-01-30T03:35:33.130Z,67.72
2024-01-30T03:38:35.700Z,67.61
2024-01-30T03:41:37.936Z,68.01
2024-01-30T03:44:40.110Z,68.46
2024-01-30T03:47:44.928Z,69.27
2024-01-30T03:50:47.126Z,68.57
2024-01-30T03:53:49.277Z,68.00
2024-01-30T03:56:51.557Z,67.90
2024-01-30T03:59:54.444Z,67.83
2024-01-30T04:02:56.899Z,67.01
2024-01-30T04:05:59.504Z,66.62
2024-01-30T04:09:01.782Z,66.51
2024-01-30T04:12:04.867Z,66.51
2024-01-30T04:15:07.204Z,67.30
2024-01-30T04:18:09.439Z,67.99
2024-01-30T04:21:11.679Z,68.08
2024-01-30T04:24:13.951Z,67.71
2024-01-30T04:27:16.157Z,67.89
2024-01-30T04:30:18.453Z,68.14
2024-01-30T04:33:20.591Z,68.35
2024-01-30T04:36:22.818Z,68.46
2024-01-30T04:39:24.961Z,68.15
2024-01-30T04:42:27.250Z,67.82
2024-01-30T04:45:29.445Z,67.93
2024-01-30T04:48:31.703Z,68.30
2024-01-30T04:51:34.117Z,68.10
2024-01-30T04:54:36.812Z,67.44
2024-01-30T04:57:39.277Z,67.61
2024-01-30T05:00:41.648Z,67.29
2024-01-30T05:03:44.397Z,67.15
2024-01-30T05:06:46.852Z,67.59
2024-01-30T05:09:49.075Z,67.26
2024-01-30T05:12:51.406Z,67.43
2024-01-30T05:15:53.637Z,66.98
2024-01-30T05:18:55.883Z,67.25
2024-01-30T05:21:58.074Z,67.89
2024-01-30T05:25:00.340Z,68.58
2024-01-30T05:28:02.552Z,69.15
2024-01-30T05:31:04.927Z,69.15
2024-01-30T05:34:08.000Z,68.56
2024-01-30T05:37:10.407Z,68.20
2024-01-30T05:40:12.776Z,67.98
2024-01-30T05:43:15.139Z,67.57
2024-01-30T05:46:17.463Z,67.74
2024-01-30T05:49:19.779Z,67.75
2024-01-30T05:52:22.174Z,68.06
2024-01-30T05:55:24.489Z,68.05
2024-01-30T05:58:26.686Z,68.93
2024-01-30T06:01:30.566Z,69.37
2024-01-30T06:04:33.051Z,69.14
2024-01-30T06:07:37.065Z,68.69
2024-01-30T06:10:40.262Z,69.07
2024-01-30T06:13:42.481Z,68.98
2024-01-30T06:16:44.633Z,68.90
2024-01-30T06:19:46.859Z,68.18
2024-01-30T06:22:49.037Z,68.55
2024-01-30T06:25:51.239Z,68.12
2024-01-30T06:28:53.489Z,68.34
2024-01-30T06:31:55.844Z,67.78
2024-01-30T06:34:58.160Z,67.93
2024-01-30T06:38:00.496Z,68.52
2024-01-30T06:41:02.744Z,68.49
2024-01-30T06:44:09.424Z,68.40
2024-01-30T06:47:12.035Z,67.25
2024-01-30T06:50:14.358Z,66.51
2024-01-30T06:53:16.610Z,65.04
2024-01-30T06:56:22.057Z,63.99
2024-01-30T06:59:24.897Z,62.60
2024-01-30T07:02:27.121Z,61.82
2024-01-30T07:05:29.266Z,61.18
2024-01-30T07:08:31.476Z,59.09
2024-01-30T07:11:33.748Z,58.51
2024-01-30T07:14:36.508Z,57.49
2024-01-30T07:17:38.909Z,57.03
2024-01-30T07:20:47.384Z,56.90
2024-01-30T07:23:49.759Z,57.47
2024-01-30T07:26:52.042Z,56.92
2024-01-30T07:29:54.915Z,57.78
2024-01-30T07:32:57.222Z,56.85
2024-01-30T07:35:59.403Z,55.03
2024-01-30T07:39:01.709Z,53.96
2024-01-30T07:42:07.224Z,52.89
2024-01-30T07:45:10.655Z,54.70
2024-01-30T07:48:12.945Z,53.18
2024-01-30T07:51:15.254Z,51.99
2024-01-30T07:54:17.538Z,50.39
2024-01-30T07:57:19.668Z,49.56
2024-01-30T08:00:22.731Z,49.36
2024-01-30T08:03:25.446Z,48.42
2024-01-30T08:06:27.722Z,47.37
2024-01-30T08:09:29.909Z,46.12
2024-01-30T08:12:32.102Z,45.50
2024-01-30T08:15:34.684Z,44.32
2024-01-30T08:18:37.316Z,45.13
2024-01-30T08:21:40.231Z,47.75
2024-01-30T08:24:42.617Z,49.55
2024-01-30T08:27:45.652Z,51.42
2024-01-30T08:30:49.018Z,50.65
2024-01-30T08:33:51.392Z,50.84
2024-01-30T08:36:53.656Z,50.91
2024-01-30T08:39:56.129Z,52.59
2024-01-30T08:42:58.358Z,54.01
2024-01-30T08:46:01.992Z,51.64
2024-01-30T08:49:06.040Z,50.52
2024-01-30T08:52:08.432Z,53.21
2024-01-30T08:55:10.797Z,55.15
2024-01-30T08:58:13.241Z,55.94
2024-01-30T09:01:15.977Z,57.97
2024-01-30T09:04:18.219Z,55.62
2024-01-30T09:07:20.615Z,51.91
2024-01-30T09:10:23.232Z,47.78
2024-01-30T09:13:25.685Z,43.24
2024-01-30T09:16:28.060Z,41.44
2024-01-30T09:19:31.678Z,41.13
2024-01-30T09:22:34.211Z,41.71
2024-01-30T09:25:36.605Z,40.49
2024-01-30T09:28:38.809Z,40.88
2024-01-30T09:31:44.725Z,40.40
2024-01-30T09:34:47.196Z,40.84
2024-01-30T09:37:49.488Z,41.07
2024-01-30T09:40:56.007Z,40.65
2024-01-30T09:43:58.705Z,40.09
2024-01-30T09:47:04.677Z,39.25
2024-01-30T09:50:07.887Z,39.40
2024-01-30T09:53:10.448Z,41.01
2024-01-30T09:56:13.766Z,41.56
2024-01-30T09:59:16.451Z,44.13
2024-01-30T10:02:20.228Z,43.80
2024-01-30T10:05:27.958Z,45.59
2024-01-30T10:08:31.085Z,48.54
2024-01-30T10:11:33.435Z,50.98
2024-01-30T10:14:39.224Z,51.08
2024-01-30T10:17:41.828Z,51.95
2024-01-30T10:20:44.113Z,53.23
2024-01-30T10:23:46.316Z,53.87
2024-01-30T10:26:48.547Z,54.87
2024-01-30T10:29:50.733Z,55.60
2024-01-30T10:32:53.125Z,55.65
2024-01-30T10:36:03.405Z,56.14
2024-01-30T10:39:07.678Z,57.64
2024-01-30T10:42:14.688Z,56.74
2024-01-30T10:45:17.103Z,58.03
2024-01-30T10:48:23.381Z,58.42
2024-01-30T10:51:27.979Z,58.80
2024-01-30T10:54:30.182Z,58.85
2024-01-30T10:57:37.870Z,58.49
2024-01-30T11:00:40.444Z,59.04
2024-01-30T11:03:42.977Z,58.18
2024-01-30T11:06:45.615Z,58.58
2024-01-30T11:09:54.944Z,59.62
2024-01-30T11:12:57.279Z,59.22
2024-01-30T11:16:06.474Z,60.16
2024-01-30T11:19:12.224Z,60.00
2024-01-30T11:22:14.717Z,60.54
2024-01-30T11:25:18.456Z,60.60
2024-01-30T11:28:23.164Z,60.90
2024-01-30T11:31:25.521Z,60.36
2024-01-30T11:34:30.680Z,60.92
2024-01-30T11:37:33.070Z,60.42
2024-01-30T11:40:37.598Z,61.03
2024-01-30T11:43:40.067Z,62.48
2024-01-30T11:46:42.616Z,61.73
2024-01-30T11:49:45.233Z,62.49
2024-01-30T11:52:47.857Z,62.75
2024-01-30T11:55:53.862Z,62.78
2024-01-30T11:58:56.300Z,62.93
2024-01-30T12:01:58.568Z,62.46
2024-01-30T12:05:06.142Z,62.28
2024-01-30T12:08:08.545Z,62.34
2024-01-30T12:11:11.540Z,62.26
2024-01-30T12:14:14.299Z,62.79
2024-01-30T12:17:30.181Z,63.02
2024-01-30T12:20:32.350Z,62.89
2024-01-30T12:23:34.552Z,62.65
2024-01-30T12:26:36.854Z,62.44
2024-01-30T12:29:43.249Z,62.59
2024-01-30T12:32:47.446Z,61.24
2024-01-30T12:35:58.377Z,60.99
2024-01-30T12:39:05.574Z,59.33
2024-01-30T12:42:08.589Z,59.55
2024-01-30T12:45:11.292Z,60.04
2024-01-30T12:48:13.845Z,58.55
2024-01-30T12:51:16.094Z,58.53
2024-01-30T12:54:18.769Z,57.31
2024-01-30T12:57:21.216Z,58.05
2024-01-30T13:00:23.745Z,58.33
2024-01-30T13:03:26.019Z,58.47
2024-01-30T13:06:28.278Z,57.56
2024-01-30T13:09:33.832Z,57.39
2024-01-30T13:12:36.623Z,57.41
2024-01-30T13:15:39.478Z,57.61
2024-01-30T13:18:42.451Z,57.30
2024-01-30T13:21:44.864Z,57.16
2024-01-30T13:24:47.061Z,57.45
2024-01-30T13:27:49.439Z,57.60
2024-01-30T13:30:51.693Z,56.99
2024-01-30T13:33:54.808Z,57.49
2024-01-30T13:36:57.727Z,57.17
2024-01-30T13:40:01.317Z,57.14
2024-01-30T13:43:04.840Z,56.91
2024-01-30T13:46:07.196Z,54.95
2024-01-30T13:49:09.494Z,55.32
2024-01-30T13:52:11.715Z,54.99
2024-01-30T13:55:14.402Z,55.26
2024-01-30T13:58:16.852Z,55.32
2024-01-30T14:01:19.393Z,55.63
2024-01-30T14:04:23.050Z,55.00
2024-01-30T14:07:25.528Z,54.23
2024-01-30T14:10:27.895Z,54.60
2024-01-30T14:13:30.357Z,54.30
2024-01-30T14:16:32.628Z,54.75
2024-01-30T14:19:36.473Z,54.52
2024-01-30T14:22:41.742Z,53.98
2024-01-30T14:25:44.044Z,54.48
2024-01-30T14:28:47.406Z,55.02
2024-01-30T14:31:49.480Z,53.04
2024-01-30T14:34:52.195Z,53.04
2024-01-30T14:37:54.616Z,53.48
2024-01-30T14:40:56.814Z,53.62
2024-01-30T14:43:59.027Z,53.99
2024-01-30T14:47:01.768Z,53.90
2024-01-30T14:50:06.620Z,53.87
2024-01-30T14:53:09.672Z,53.72
2024-01-30T14:56:11.950Z,53.63
2024-01-30T14:59:14.475Z,53.85
2024-01-30T15:02:16.855Z,54.08
2024-01-30T15:05:19.180Z,54.17
2024-01-30T15:08:21.865Z,54.66
2024-01-30T15:11:24.179Z,54.55
2024-01-30T15:14:26.426Z,54.83
2024-01-30T15:17:28.669Z,55.21
2024-01-30T15:20:32.526Z,55.10
2024-01-30T15:23:34.774Z,55.78
2024-01-30T15:26:37.003Z,55.99
2024-01-30T15:29:39.392Z,56.33
2024-01-30T15:32:41.861Z,56.41
2024-01-30T15:35:44.146Z,57.07
2024-01-30T15:38:46.591Z,57.01
2024-01-30T15:41:49.422Z,57.57
2024-01-30T15:44:51.657Z,57.97
2024-01-30T15:47:53.845Z,57.53
2024-01-30T15:50:55.993Z,58.05
2024-01-30T15:53:58.237Z,58.27
2024-01-30T15:57:00.628Z,58.60
2024-01-30T16:00:02.968Z,58.85
2024-01-30T16:03:13.721Z,59.22
2024-01-30T16:06:18.173Z,59.22
2024-01-30T16:09:20.443Z,59.12
2024-01-30T16:12:22.609Z,58.94
2024-01-30T16:15:26.405Z,59.11
2024-01-30T16:18:32.063Z,59.47
2024-01-30T16:21:34.282Z,58.84
2024-01-30T16:24:36.510Z,59.33
2024-01-30T16:27:38.731Z,60.00
2024-01-30T16:30:40.846Z,60.33
2024-01-30T16:33:43.075Z,60.47
2024-01-30T16:36:45.316Z,60.02
2024-01-30T16:39:47.679Z,60.39
2024-01-30T16:42:49.904Z,60.54
2024-01-30T16:45:52.245Z,61.27
2024-01-30T16:48:54.520Z,61.13
2024-01-30T16:51:58.619Z,60.80
2024-01-30T16:55:02.148Z,61.19
2024-01-30T16:58:04.757Z,61.51
2024-01-30T17:01:07.052Z,61.35
2024-01-30T17:04:09.455Z,61.43
2024-01-30T17:07:11.891Z,62.84
2024-01-30T17:10:17.584Z,62.61
2024-01-30T17:13:19.834Z,62.98
2024-01-30T17:16:22.553Z,62.46
2024-01-30T17:19:24.995Z,63.15
2024-01-30T17:22:28.108Z,63.58
2024-01-30T17:25:30.608Z,63.53
2024-01-30T17:28:32.954Z,64.63
2024-01-30T17:31:35.237Z,64.38
2024-01-30T17:34:37.506Z,64.50
2024-01-30T17:37:40.325Z,64.82
2024-01-30T17:40:42.586Z,65.23
2024-01-30T17:43:45.120Z,65.43
2024-01-30T17:46:48.462Z,65.15
2024-01-30T17:49:50.769Z,65.57
2024-01-30T17:52:54.944Z,66.22
2024-01-30T17:56:01.673Z,65.26
2024-01-30T17:59:04.118Z,65.75
2024-01-30T18:02:06.596Z,66.62
2024-01-30T18:05:10.813Z,66.57
2024-01-30T18:08:13.154Z,65.96
2024-01-30T18:11:15.372Z,66.46
2024-01-30T18:14:17.586Z,66.70
2024-01-30T18:17:19.752Z,66.83
2024-01-30T18:20:22.003Z,66.89
2024-01-30T18:23:24.325Z,66.45
2024-01-30T18:26:27.280Z,67.04
2024-01-30T18:29:29.596Z,67.52
2024-01-30T18:32:31.847Z,67.60
2024-01-30T18:35:34.871Z,67.36
2024-01-30T18:38:37.089Z,68.20
2024-01-30T18:41:39.401Z,68.27
2024-01-30T18:44:41.660Z,68.57
2024-01-30T18:47:43.900Z,69.23
2024-01-30T18:50:46.271Z,68.31
2024-01-30T18:53:48.927Z,68.76
2024-01-30T18:56:51.184Z,68.98
2024-01-30T18:59:53.517Z,68.25
2024-01-30T19:02:56.712Z,68.22
2024-01-30T19:05:59.174Z,69.01
2024-01-30T19:09:01.482Z,68.40
2024-01-30T19:12:03.796Z,68.76
2024-01-30T19:15:10.490Z,68.11
2024-01-30T19:18:13.994Z,68.68
2024-01-30T19:21:16.313Z,68.72
2024-01-30T19:24:18.513Z,68.32
2024-01-30T19:27:21.121Z,69.21
2024-01-30T19:30:23.416Z,68.71
2024-01-30T19:33:25.631Z,68.63
2024-01-30T19:36:27.810Z,68.93
2024-01-30T19:39:29.948Z,69.47
2024-01-30T19:42:32.235Z,69.64
2024-01-30T19:45:35.105Z,69.05
2024-01-30T19:48:37.813Z,70.06
2024-01-30T19:51:40.003Z,69.31
2024-01-30T19:54:42.194Z,69.77
2024-01-30T19:57:44.458Z,69.14
2024-01-30T20:00:47.789Z,68.85
2024-01-30T20:03:50.129Z,69.39
2024-01-30T20:06:52.400Z,68.90
2024-01-30T20:09:54.752Z,68.77
2024-01-30T20:12:58.087Z,69.14
2024-01-30T20:16:00.494Z,68.98
2024-01-30T20:19:02.832Z,69.17
2024-01-30T20:22:05.232Z,69.77
2024-01-30T20:25:13.731Z,69.38
2024-01-30T20:28:20.833Z,69.42
2024-01-30T20:31:23.233Z,68.93
2024-01-30T20:34:25.708Z,69.98
2024-01-30T20:37:28.451Z,70.90
2024-01-30T20:40:30.733Z,70.91
2024-01-30T20:43:33.050Z,71.09
2024-01-30T20:46:35.386Z,70.53
2024-01-30T20:49:37.835Z,71.34
2024-01-30T20:52:40.186Z,70.33
2024-01-30T20:55:42.604Z,70.70
2024-01-30T20:58:44.818Z,71.12
2024-01-30T21:01:47.164Z,70.53
2024-01-30T21:04:49.612Z,70.94
2024-01-30T21:07:53.929Z,71.64
2024-01-30T21:10:56.307Z,70.92
2024-01-30T21:13:58.662Z,70.61
2024-01-30T21:17:01.872Z,71.69
2024-01-30T21:20:04.877Z,71.44
